Terminal Aerodrome Forecast
Issued by NWS

Home | Current Version | Previous Version | Text Only | Print | Product List | Glossary On
Versions: 1 2 3 4 5 6 7 8 9 10 11 12 13 14 15 16 17
000
FTUS43 KGRB 232300
TAFAUW
TAF
KAUW 232335Z 2400/2424 15004KT P6SM BKN250
     FM241000 15004KT P6SM OVC140
     FM241500 18008KT P6SM OVC100
     FM242100 17007KT P6SM VCSH SCT035 OVC060 PROB30 2422/2424 -SHRA
      BKN035=

USA.gov is the U.S. government's official web portal to all federal, state and local government web resources and services.